Search for airport 
image banner adimage banner adimage banner ad
image banner ad

1IA2 - Camp Tahigwa Landing Site

Located in Dorchester, United States

ICAO - 1IA2, IATA -

Data provided by Airmate  

General information

Coordinates: N43°26'20" W91°34'3"
Elevation is 760 feet MSL.
Magnetic variation is 02° East
View others Airports in Iowa

Operational data

Special qualification required
Current time UTC:
Current local time:
Weather at : KDEH - Decorah Muni ( 23 km )
METAR: KDEH 181755Z AUTO VRB05KT 10SM CLR 29/15 A2983 RMK AO2
View NOTAMs / SUP AIP / TFR affecting this airport [VIEW]
Communications frequencies: [VIEW]

Runways:

Airport contact information

Address: Dorchester United States

Satellite view of 1IA2